Time,TemperatureF,DewpointF,PressureIn,WindDirection,WindDirectionDegrees,WindSpeedMPH,WindSpeedGustMPH,Humidity,HourlyPrecipIn,Conditions,Clouds,dailyrainin,SoftwareType,DateUTC
2013-07-02 00:12:00,70.6,70.0,30.03,East,86,0.0,0.0,98,0.01,,,0.00,weatherlink.com 1.10,2013-07-02 04:12:00,
2013-07-02 00:27:00,70.6,70.0,30.03,East,86,0.0,0.0,98,0.00,,,0.00,weatherlink.com 1.10,2013-07-02 04:27:00,
2013-07-02 00:42:00,70.6,70.0,30.02,East,86,0.0,1.0,98,0.00,,,0.00,weatherlink.com 1.10,2013-07-02 04:42:00,
2013-07-02 00:57:00,70.6,70.0,30.02,East,86,0.0,0.0,98,0.00,,,0.00,weatherlink.com 1.10,2013-07-02 04:57:00,
2013-07-02 01:12:00,70.7,70.0,30.02,East,86,0.0,0.0,98,0.00,,,0.00,weatherlink.com 1.10,2013-07-02 05:12:00,
2013-07-02 01:27:00,70.7,70.0,30.02,East,86,0.0,0.0,98,0.00,,,0.00,weatherlink.com 1.10,2013-07-02 05:27:00,
2013-07-02 01:42:00,70.7,70.0,30.02,East,86,0.0,0.0,98,0.00,,,0.00,weatherlink.com 1.10,2013-07-02 05:42:00,
2013-07-02 01:57:00,70.7,70.0,30.02,East,86,0.0,0.0,98,0.00,,,0.00,weatherlink.com 1.10,2013-07-02 05:57:00,
2013-07-02 02:12:00,70.7,70.0,30.03,East,86,0.0,0.0,98,0.00,,,0.00,weatherlink.com 1.10,2013-07-02 06:12:00,
2013-07-02 02:27:00,70.7,70.0,30.03,East,86,0.0,0.0,98,0.00,,,0.00,weatherlink.com 1.10,2013-07-02 06:27:00,
2013-07-02 02:42:00,70.9,70.0,30.03,East,86,0.0,1.0,98,0.00,,,0.00,weatherlink.com 1.10,2013-07-02 06:42:00,
2013-07-02 02:57:00,71.0,70.0,30.03,East,83,0.0,1.0,98,0.00,,,0.00,weatherlink.com 1.10,2013-07-02 06:57:00,
2013-07-02 03:12:00,71.1,71.0,30.03,East,83,0.0,1.0,98,0.00,,,0.00,weatherlink.com 1.10,2013-07-02 07:12:00,
2013-07-02 03:27:00,71.2,70.0,30.03,East,83,0.0,5.0,97,0.00,,,0.00,weatherlink.com 1.10,2013-07-02 07:27:00,
2013-07-02 03:42:00,71.2,70.0,30.04,East,94,0.0,3.0,97,0.00,,,0.00,weatherlink.com 1.10,2013-07-02 07:42:00,
2013-07-02 03:57:00,71.1,70.0,30.04,East,94,0.0,6.0,97,0.00,,,0.00,weatherlink.com 1.10,2013-07-02 07:57:00,
2013-07-02 04:13:00,71.1,70.0,30.03,East,94,0.0,2.0,97,0.00,,,0.00,weatherlink.com 1.10,2013-07-02 08:13:00,
2013-07-02 04:27:00,71.2,70.0,30.04,East,94,0.0,1.0,97,0.00,,,0.00,weatherlink.com 1.10,2013-07-02 08:27:00,
2013-07-02 04:42:00,71.2,70.0,30.04,East,94,0.0,1.0,96,0.00,,,0.00,weatherlink.com 1.10,2013-07-02 08:42:00,
2013-07-02 04:57:00,71.2,70.0,30.04,East,94,0.0,0.0,96,0.00,,,0.00,weatherlink.com 1.10,2013-07-02 08:57:00,
2013-07-02 05:12:00,70.9,70.0,30.04,East,94,0.0,0.0,96,0.00,,,0.00,weatherlink.com 1.10,2013-07-02 09:12:00,
2013-07-02 05:27:00,70.4,70.0,30.05,East,94,0.0,0.0,97,0.00,,,0.00,weatherlink.com 1.10,2013-07-02 09:27:00,
2013-07-02 05:42:00,70.3,69.0,30.06,East,94,0.0,0.0,97,0.00,,,0.00,weatherlink.com 1.10,2013-07-02 09:42:00,
2013-07-02 05:57:00,70.2,69.0,30.07,East,94,0.0,1.0,97,0.00,,,0.00,weatherlink.com 1.10,2013-07-02 09:57:00,
2013-07-02 06:12:00,70.3,69.0,30.07,East,94,0.0,0.0,97,0.00,,,0.00,weatherlink.com 1.10,2013-07-02 10:12:00,
2013-07-02 06:27:00,70.5,70.0,30.08,East,94,0.0,0.0,98,0.00,,,0.00,weatherlink.com 1.10,2013-07-02 10:27:00,
2013-07-02 06:42:00,71.1,71.0,30.07,East,94,0.0,1.0,98,0.00,,,0.00,weatherlink.com 1.10,2013-07-02 10:42:00,
2013-07-02 06:57:00,72.0,71.0,30.07,East,94,0.0,3.0,96,0.00,,,0.00,weatherlink.com 1.10,2013-07-02 10:57:00,
2013-07-02 07:12:00,72.7,71.0,30.08,East,94,0.0,1.0,95,0.00,,,0.00,weatherlink.com 1.10,2013-07-02 11:12:00,
2013-07-02 07:27:00,73.1,71.0,30.08,East,94,0.0,6.0,94,0.00,,,0.00,weatherlink.com 1.10,2013-07-02 11:27:00,
2013-07-02 07:42:00,73.1,71.0,30.09,East,94,0.0,1.0,94,0.01,,,0.01,weatherlink.com 1.10,2013-07-02 11:42:00,
2013-07-02 07:57:00,72.9,71.0,30.09,East,94,0.0,1.0,94,0.01,,,0.01,weatherlink.com 1.10,2013-07-02 11:57:00,
2013-07-02 08:12:00,73.1,71.0,30.09,ENE,73,0.0,1.0,94,0.01,,,0.01,weatherlink.com 1.10,2013-07-02 12:12:00,
2013-07-02 08:27:00,73.5,71.0,30.10,ENE,73,0.0,3.0,93,0.01,,,0.01,weatherlink.com 1.10,2013-07-02 12:27:00,
2013-07-02 08:42:00,73.8,72.0,30.10,ENE,73,0.0,1.0,93,0.00,,,0.01,weatherlink.com 1.10,2013-07-02 12:42:00,
2013-07-02 08:57:00,71.2,68.0,30.10,WNW,294,3.0,8.0,90,0.00,,,0.01,weatherlink.com 1.10,2013-07-02 12:57:00,
2013-07-02 09:12:00,68.6,67.0,30.11,WNW,285,2.0,7.0,93,0.00,,,0.01,weatherlink.com 1.10,2013-07-02 13:12:00,
2013-07-02 09:27:00,67.2,65.0,30.11,NNE,19,0.0,6.0,91,0.00,,,0.01,weatherlink.com 1.10,2013-07-02 13:27:00,
2013-07-02 09:42:00,66.5,64.0,30.12,NW,314,0.0,3.0,91,0.00,,,0.01,weatherlink.com 1.10,2013-07-02 13:42:00,
2013-07-02 09:58:00,65.4,63.0,30.13,NW,312,0.0,4.0,92,0.00,,,0.01,weatherlink.com 1.10,2013-07-02 13:58:00,
2013-07-02 10:13:00,64.7,63.0,30.13,WNW,288,0.0,3.0,93,0.00,,,0.01,weatherlink.com 1.10,2013-07-02 14:13:00,
2013-07-02 10:28:00,64.0,62.0,30.13,NNW,344,0.0,1.0,93,0.01,,,0.02,weatherlink.com 1.10,2013-07-02 14:28:00,
2013-07-02 10:43:00,63.8,62.0,30.14,NNW,344,0.0,1.0,95,0.03,,,0.04,weatherlink.com 1.10,2013-07-02 14:43:00,
2013-07-02 10:58:00,63.8,62.0,30.14,NNE,26,0.0,3.0,95,0.04,,,0.05,weatherlink.com 1.10,2013-07-02 14:58:00,
2013-07-02 11:13:00,63.5,62.0,30.14,ENE,65,0.0,4.0,95,0.04,,,0.05,weatherlink.com 1.10,2013-07-02 15:13:00,
2013-07-02 11:29:00,63.1,62.0,30.14,NE,42,0.0,5.0,95,0.03,,,0.05,weatherlink.com 1.10,2013-07-02 15:29:00,
2013-07-02 11:43:00,62.6,62.0,30.15,East,81,2.0,7.0,96,0.02,,,0.06,weatherlink.com 1.10,2013-07-02 15:43:00,
2013-07-02 11:58:00,62.1,61.0,30.15,ESE,103,3.0,8.0,95,0.01,,,0.06,weatherlink.com 1.10,2013-07-02 15:58:00,
2013-07-02 12:13:00,62.2,61.0,30.14,NE,51,1.0,9.0,95,0.01,,,0.06,weatherlink.com 1.10,2013-07-02 16:13:00,
2013-07-02 12:28:00,62.4,61.0,30.15,NE,55,0.0,3.0,96,0.01,,,0.06,weatherlink.com 1.10,2013-07-02 16:28:00,
2013-07-02 12:43:00,62.3,61.0,30.15,ENE,57,0.0,3.0,96,0.01,,,0.07,weatherlink.com 1.10,2013-07-02 16:43:00,
2013-07-02 12:58:00,62.2,61.0,30.15,ENE,57,0.0,3.0,96,0.01,,,0.07,weatherlink.com 1.10,2013-07-02 16:58:00,
2013-07-02 13:13:00,62.6,62.0,30.15,ESE,123,0.0,7.0,96,0.01,,,0.07,weatherlink.com 1.10,2013-07-02 17:13:00,
2013-07-02 13:28:00,62.5,61.0,30.15,ESE,118,2.0,6.0,95,0.01,,,0.07,weatherlink.com 1.10,2013-07-02 17:28:00,
2013-07-02 13:43:00,62.5,61.0,30.15,ESE,122,0.0,2.0,96,0.00,,,0.07,weatherlink.com 1.10,2013-07-02 17:43:00,
2013-07-02 13:58:00,62.4,61.0,30.15,East,99,0.0,6.0,95,0.00,,,0.07,weatherlink.com 1.10,2013-07-02 17:58:00,
2013-07-02 14:13:00,62.6,61.0,30.15,ESE,103,0.0,5.0,95,0.01,,,0.08,weatherlink.com 1.10,2013-07-02 18:13:00,
2013-07-02 14:28:00,62.6,61.0,30.15,NE,52,1.0,3.0,95,0.05,,,0.12,weatherlink.com 1.10,2013-07-02 18:28:00,
2013-07-02 14:43:00,63.0,62.0,30.15,ENE,72,4.0,5.0,96,0.05,,,0.12,weatherlink.com 1.10,2013-07-02 18:43:00,
2013-07-02 14:58:00,63.1,62.0,30.14,ESE,114,4.0,7.0,95,0.05,,,0.12,weatherlink.com 1.10,2013-07-02 18:58:00,
2013-07-02 15:13:00,63.1,62.0,30.14,East,84,0.0,6.0,95,0.04,,,0.12,weatherlink.com 1.10,2013-07-02 19:13:00,
2013-07-02 15:28:00,63.4,62.0,30.14,ENE,71,0.0,4.0,95,0.00,,,0.12,weatherlink.com 1.10,2013-07-02 19:28:00,
2013-07-02 15:43:00,63.7,62.0,30.14,ESE,116,0.0,4.0,94,0.00,,,0.12,weatherlink.com 1.10,2013-07-02 19:43:00,
2013-07-02 15:58:00,63.4,62.0,30.14,ENE,69,0.0,4.0,95,0.00,,,0.12,weatherlink.com 1.10,2013-07-02 19:58:00,
2013-07-02 16:13:00,63.2,62.0,30.14,ESE,102,0.0,7.0,94,0.00,,,0.12,weatherlink.com 1.10,2013-07-02 20:13:00,
2013-07-02 16:28:00,63.2,62.0,30.14,ENE,76,0.0,1.0,94,0.00,,,0.12,weatherlink.com 1.10,2013-07-02 20:28:00,
2013-07-02 16:43:00,63.4,62.0,30.14,East,92,0.0,7.0,94,0.00,,,0.12,weatherlink.com 1.10,2013-07-02 20:43:00,
2013-07-02 16:58:00,63.3,62.0,30.14,East,86,0.0,8.0,94,0.00,,,0.12,weatherlink.com 1.10,2013-07-02 20:58:00,
2013-07-02 17:13:00,63.2,62.0,30.15,ENE,76,0.0,5.0,94,0.00,,,0.12,weatherlink.com 1.10,2013-07-02 21:13:00,
2013-07-02 17:28:00,63.1,61.0,30.15,ENE,76,0.0,1.0,94,0.00,,,0.12,weatherlink.com 1.10,2013-07-02 21:28:00,
2013-07-02 17:43:00,63.0,61.0,30.15,East,82,0.0,4.0,94,0.00,,,0.12,weatherlink.com 1.10,2013-07-02 21:43:00,
2013-07-02 17:58:00,63.0,61.0,30.15,ENE,72,5.0,5.0,94,0.00,,,0.12,weatherlink.com 1.10,2013-07-02 21:58:00,
2013-07-02 18:13:00,63.0,62.0,30.14,East,100,0.0,1.0,95,0.01,,,0.13,weatherlink.com 1.10,2013-07-02 22:13:00,
2013-07-02 18:28:00,62.9,62.0,30.15,East,100,2.0,3.0,95,0.03,,,0.15,weatherlink.com 1.10,2013-07-02 22:28:00,
2013-07-02 18:44:00,62.5,61.0,30.15,ESE,107,0.0,3.0,95,0.04,,,0.16,weatherlink.com 1.10,2013-07-02 22:44:00,
2013-07-02 18:58:00,62.3,61.0,30.15,ENE,57,1.0,3.0,96,0.04,,,0.16,weatherlink.com 1.10,2013-07-02 22:58:00,
2013-07-02 19:13:00,62.2,61.0,30.16,ESE,109,0.0,3.0,96,0.03,,,0.16,weatherlink.com 1.10,2013-07-02 23:13:00,
2013-07-02 19:28:00,62.1,61.0,30.16,ESE,109,0.0,1.0,96,0.01,,,0.16,weatherlink.com 1.10,2013-07-02 23:28:00,
2013-07-02 19:43:00,61.8,61.0,30.17,ENE,75,0.0,4.0,96,0.00,,,0.16,weatherlink.com 1.10,2013-07-02 23:43:00,
2013-07-02 19:58:00,61.7,61.0,30.17,ENE,75,0.0,1.0,96,0.00,,,0.16,weatherlink.com 1.10,2013-07-02 23:58:00,
2013-07-02 20:13:00,61.6,61.0,30.18,ESE,111,0.0,4.0,97,0.00,,,0.16,weatherlink.com 1.10,2013-07-03 00:13:00,
2013-07-02 20:28:00,61.5,61.0,30.18,East,81,0.0,3.0,97,0.00,,,0.16,weatherlink.com 1.10,2013-07-03 00:28:00,
2013-07-02 20:43:00,61.4,61.0,30.17,ESE,118,0.0,3.0,97,0.04,,,0.20,weatherlink.com 1.10,2013-07-03 00:43:00,
2013-07-02 20:58:00,61.3,61.0,30.18,ESE,118,0.0,1.0,97,0.09,,,0.25,weatherlink.com 1.10,2013-07-03 00:58:00,
2013-07-02 21:13:00,61.3,61.0,30.19,ESE,118,0.0,1.0,97,0.13,,,0.29,weatherlink.com 1.10,2013-07-03 01:13:00,
2013-07-02 21:28:00,61.3,61.0,30.18,ESE,118,0.0,0.0,97,0.16,,,0.32,weatherlink.com 1.10,2013-07-03 01:28:00,
2013-07-02 21:43:00,61.3,61.0,30.19,ESE,118,0.0,0.0,98,0.14,,,0.34,weatherlink.com 1.10,2013-07-03 01:43:00,
2013-07-02 21:58:00,61.3,61.0,30.19,ESE,118,0.0,0.0,98,0.10,,,0.35,weatherlink.com 1.10,2013-07-03 01:58:00,
2013-07-02 22:13:00,61.3,61.0,30.19,ESE,118,0.0,0.0,98,0.06,,,0.35,weatherlink.com 1.10,2013-07-03 02:13:00,
2013-07-02 22:28:00,61.3,61.0,30.19,ESE,118,0.0,0.0,98,0.06,,,0.38,weatherlink.com 1.10,2013-07-03 02:28:00,
2013-07-02 22:43:00,61.3,61.0,30.19,ESE,118,0.0,0.0,98,0.09,,,0.43,weatherlink.com 1.10,2013-07-03 02:43:00,
2013-07-02 22:58:00,61.2,61.0,30.18,ESE,118,0.0,0.0,98,0.12,,,0.47,weatherlink.com 1.10,2013-07-03 02:58:00,
2013-07-02 23:28:00,61.1,61.0,30.18,ESE,118,0.0,0.0,98,0.20,,,0.58,weatherlink.com 1.10,2013-07-03 03:28:00,
2013-07-02 23:43:00,61.1,61.0,30.18,ESE,118,0.0,0.0,98,0.16,,,0.59,weatherlink.com 1.10,2013-07-03 03:43:00,
2013-07-02 23:58:00,61.1,61.0,30.18,ESE,118,0.0,0.0,98,0.12,,,0.59,weatherlink.com 1.10,2013-07-03 03:58:00,